LIED/DCI METAR and TAF weather

Enter ICAO airport designator
Station Type Date Time Source
LIED METAR 2019/12/08 16:55 UTC NOAA

LIED 081655Z 35007KT CAVOK 14/12 Q1018 RMK SCT FEW080 VIS MIN 9999 WIND THR35 33009KT WIND THR17 /////KT BLU


Station Type Date Time Source
LIED Decoded METAR 2019/12/08 16:55 UTC NOAA

Decimomannu, Italy (LIED) 39-21N 008-58E 28M
Dec 08, 2019 - 11:55 AM EST / 2019.12.08 1655 UTC
Wind: from the N (350 degrees) at 8 MPH (7 KT):0
Visibility: greater than 7 mile(s):0
Temperature: 57 F (14 C)
Dew Point: 53 F (12 C)
Relative Humidity: 87%
Pressure (altimeter): 30.06 in. Hg (1018 hPa)
ob: LIED 081655Z 35007KT CAVOK 14/12 Q1018 RMK SCT FEW080 VIS MIN 9999 WIND THR35 33009KT WIND THR17 /////KT BLU
cycle: 17

Station Type Date Time Source
LIED TAF 2015/03/04 18:18 UTC NOAA

TAF TAF LIED 041700Z 0418/0506 33014KT 9999 SCT020 BKN040 BKN060
TEMPO 0420/0502 33020KT 5000 RA OR SHRA FEW022CB

Example: see airport list